Whitney Point, New York
Current Conditions -  °F | °C
As of 8:53 AM on Friday 24 Oct 2014 (Local Time) from KBGM Reporting Station
Overcast Overcast  
Wind Chill: 40°   Ceiling: 1000
Heat Index: 46°   Visibility: 10mi
Dew Point: 42°   Wind: 14mph
Humidity: 86%   Direction: 330°NNW
Pressure: 29.91"   Gusts: 21mph
Location:  42.33°N, 75.97°W
Report Text: KBGM 241253Z 33012G18KT 10SM OVC010 08/06 A2991 RMK AO2 CIG 008V014 SLP135 T00780056
Loading
Personal Weather Stations






























Interactive Weather Map
Tropical Storm Tracking
New forecast layout! Learn more

10-Day Weather Forecast

Advertisements
Track Severe Weather on mobile